sensor_id;sensor_type;location;lat;lon;timestamp;P1;durP1;ratioP1;P2;durP2;ratioP2
9388;SDS011;4734;52.778;6.798;2023-07-24T00:00:24;5.07;;;4.68;;
9388;SDS011;4734;52.778;6.798;2023-07-24T00:03:09;4.72;;;4.32;;
9388;SDS011;4734;52.778;6.798;2023-07-24T00:05:57;4.68;;;4.38;;
9388;SDS011;4734;52.778;6.798;2023-07-24T00:08:43;5.05;;;4.55;;
9388;SDS011;4734;52.778;6.798;2023-07-24T00:11:30;5.20;;;4.72;;
9388;SDS011;4734;52.778;6.798;2023-07-24T00:14:15;5.47;;;5.07;;
9388;SDS011;4734;52.778;6.798;2023-07-24T00:17:01;5.57;;;5.07;;
9388;SDS011;4734;52.778;6.798;2023-07-24T00:19:47;5.85;;;5.40;;
9388;SDS011;4734;52.778;6.798;2023-07-24T00:22:33;6.43;;;5.93;;
9388;SDS011;4734;52.778;6.798;2023-07-24T00:25:18;8.77;;;5.90;;
9388;SDS011;4734;52.778;6.798;2023-07-24T00:28:05;6.18;;;5.68;;
9388;SDS011;4734;52.778;6.798;2023-07-24T00:30:51;7.30;;;6.60;;
9388;SDS011;4734;52.778;6.798;2023-07-24T00:33:36;6.40;;;5.90;;
9388;SDS011;4734;52.778;6.798;2023-07-24T00:36:22;6.63;;;6.13;;
9388;SDS011;4734;52.778;6.798;2023-07-24T00:39:08;6.78;;;6.18;;
9388;SDS011;4734;52.778;6.798;2023-07-24T00:41:53;6.45;;;5.95;;
9388;SDS011;4734;52.778;6.798;2023-07-24T00:44:40;6.05;;;5.45;;
9388;SDS011;4734;52.778;6.798;2023-07-24T00:47:26;6.65;;;6.05;;
9388;SDS011;4734;52.778;6.798;2023-07-24T00:50:12;6.38;;;5.88;;
9388;SDS011;4734;52.778;6.798;2023-07-24T00:52:58;7.00;;;6.32;;
9388;SDS011;4734;52.778;6.798;2023-07-24T00:55:44;6.40;;;5.80;;
9388;SDS011;4734;52.778;6.798;2023-07-24T00:58:30;8.65;;;6.53;;
9388;SDS011;4734;52.778;6.798;2023-07-24T01:01:17;7.10;;;6.50;;
9388;SDS011;4734;52.778;6.798;2023-07-24T01:04:03;6.40;;;5.75;;
9388;SDS011;4734;52.778;6.798;2023-07-24T01:06:50;6.90;;;6.40;;
9388;SDS011;4734;52.778;6.798;2023-07-24T01:09:36;6.65;;;6.05;;
9388;SDS011;4734;52.778;6.798;2023-07-24T01:12:22;6.60;;;5.90;;
9388;SDS011;4734;52.778;6.798;2023-07-24T01:15:18;6.50;;;5.88;;
9388;SDS011;4734;52.778;6.798;2023-07-24T01:18:10;6.32;;;5.78;;
9388;SDS011;4734;52.778;6.798;2023-07-24T01:20:57;6.28;;;5.72;;
9388;SDS011;4734;52.778;6.798;2023-07-24T01:23:45;6.20;;;5.70;;
9388;SDS011;4734;52.778;6.798;2023-07-24T01:26:41;8.73;;;5.60;;
9388;SDS011;4734;52.778;6.798;2023-07-24T01:29:27;6.28;;;5.78;;
9388;SDS011;4734;52.778;6.798;2023-07-24T01:32:12;5.75;;;5.25;;
9388;SDS011;4734;52.778;6.798;2023-07-24T01:34:58;5.78;;;5.28;;
9388;SDS011;4734;52.778;6.798;2023-07-24T01:37:43;6.60;;;5.90;;
9388;SDS011;4734;52.778;6.798;2023-07-24T01:40:31;6.38;;;5.50;;
9388;SDS011;4734;52.778;6.798;2023-07-24T01:43:19;5.88;;;5.25;;
9388;SDS011;4734;52.778;6.798;2023-07-24T01:46:04;6.18;;;5.68;;
9388;SDS011;4734;52.778;6.798;2023-07-24T01:48:50;6.18;;;5.68;;
9388;SDS011;4734;52.778;6.798;2023-07-24T01:51:37;5.70;;;5.18;;
9388;SDS011;4734;52.778;6.798;2023-07-24T01:54:22;5.22;;;4.82;;
9388;SDS011;4734;52.778;6.798;2023-07-24T01:57:08;5.88;;;5.45;;
9388;SDS011;4734;52.778;6.798;2023-07-24T01:59:55;5.68;;;5.18;;
9388;SDS011;4734;52.778;6.798;2023-07-24T02:02:40;5.75;;;5.05;;
9388;SDS011;4734;52.778;6.798;2023-07-24T02:05:26;5.65;;;5.05;;
9388;SDS011;4734;52.778;6.798;2023-07-24T02:08:12;6.50;;;5.22;;
9388;SDS011;4734;52.778;6.798;2023-07-24T02:10:57;5.65;;;5.25;;
9388;SDS011;4734;52.778;6.798;2023-07-24T02:13:43;5.50;;;5.00;;
9388;SDS011;4734;52.778;6.798;2023-07-24T02:16:30;5.55;;;5.07;;
9388;SDS011;4734;52.778;6.798;2023-07-24T02:19:16;5.80;;;5.30;;
9388;SDS011;4734;52.778;6.798;2023-07-24T02:22:02;5.80;;;5.30;;
9388;SDS011;4734;52.778;6.798;2023-07-24T02:24:47;5.68;;;5.00;;
9388;SDS011;4734;52.778;6.798;2023-07-24T02:27:33;5.22;;;4.82;;
9388;SDS011;4734;52.778;6.798;2023-07-24T02:30:19;5.30;;;4.85;;
9388;SDS011;4734;52.778;6.798;2023-07-24T02:33:06;7.85;;;4.88;;
9388;SDS011;4734;52.778;6.798;2023-07-24T02:35:51;6.78;;;5.00;;
9388;SDS011;4734;52.778;6.798;2023-07-24T02:38:37;7.65;;;5.30;;
9388;SDS011;4734;52.778;6.798;2023-07-24T02:41:23;5.30;;;4.80;;
9388;SDS011;4734;52.778;6.798;2023-07-24T02:44:08;5.35;;;4.95;;
9388;SDS011;4734;52.778;6.798;2023-07-24T02:46:54;5.95;;;5.45;;
9388;SDS011;4734;52.778;6.798;2023-07-24T02:49:41;6.30;;;5.80;;
9388;SDS011;4734;52.778;6.798;2023-07-24T02:52:27;6.32;;;5.72;;
9388;SDS011;4734;52.778;6.798;2023-07-24T02:55:12;5.72;;;5.22;;
9388;SDS011;4734;52.778;6.798;2023-07-24T02:57:58;6.28;;;5.68;;
9388;SDS011;4734;52.778;6.798;2023-07-24T03:00:44;5.75;;;5.22;;
9388;SDS011;4734;52.778;6.798;2023-07-24T03:03:29;5.65;;;5.25;;
9388;SDS011;4734;52.778;6.798;2023-07-24T03:06:17;6.07;;;5.57;;
9388;SDS011;4734;52.778;6.798;2023-07-24T03:09:02;5.70;;;5.28;;
9388;SDS011;4734;52.778;6.798;2023-07-24T03:11:48;6.07;;;5.55;;
9388;SDS011;4734;52.778;6.798;2023-07-24T03:14:33;6.18;;;5.68;;
9388;SDS011;4734;52.778;6.798;2023-07-24T03:17:19;5.80;;;5.20;;
9388;SDS011;4734;52.778;6.798;2023-07-24T03:20:08;6.50;;;5.90;;
9388;SDS011;4734;52.778;6.798;2023-07-24T03:22:56;6.00;;;5.50;;
9388;SDS011;4734;52.778;6.798;2023-07-24T03:25:42;6.90;;;5.57;;
9388;SDS011;4734;52.778;6.798;2023-07-24T03:28:27;6.25;;;5.68;;
9388;SDS011;4734;52.778;6.798;2023-07-24T03:31:12;6.30;;;5.28;;
9388;SDS011;4734;52.778;6.798;2023-07-24T03:33:58;5.60;;;5.10;;
9388;SDS011;4734;52.778;6.798;2023-07-24T03:36:44;6.50;;;5.93;;
9388;SDS011;4734;52.778;6.798;2023-07-24T03:39:31;5.90;;;5.35;;
9388;SDS011;4734;52.778;6.798;2023-07-24T03:42:24;6.10;;;5.50;;
9388;SDS011;4734;52.778;6.798;2023-07-24T03:45:10;5.72;;;5.22;;
9388;SDS011;4734;52.778;6.798;2023-07-24T03:47:56;6.38;;;5.78;;
9388;SDS011;4734;52.778;6.798;2023-07-24T03:50:41;6.75;;;6.15;;
9388;SDS011;4734;52.778;6.798;2023-07-24T03:53:27;6.45;;;5.85;;
9388;SDS011;4734;52.778;6.798;2023-07-24T03:56:14;5.63;;;5.13;;
9388;SDS011;4734;52.778;6.798;2023-07-24T03:58:59;5.95;;;5.45;;
9388;SDS011;4734;52.778;6.798;2023-07-24T04:01:45;6.50;;;5.70;;
9388;SDS011;4734;52.778;6.798;2023-07-24T04:04:31;6.80;;;6.20;;
9388;SDS011;4734;52.778;6.798;2023-07-24T04:07:16;6.85;;;6.20;;
9388;SDS011;4734;52.778;6.798;2023-07-24T04:10:02;6.72;;;6.13;;
9388;SDS011;4734;52.778;6.798;2023-07-24T04:12:49;6.75;;;6.25;;
9388;SDS011;4734;52.778;6.798;2023-07-24T04:15:35;7.93;;;7.18;;
9388;SDS011;4734;52.778;6.798;2023-07-24T04:18:20;8.30;;;6.72;;
9388;SDS011;4734;52.778;6.798;2023-07-24T04:21:06;7.80;;;7.10;;
9388;SDS011;4734;52.778;6.798;2023-07-24T04:23:52;7.40;;;6.72;;
9388;SDS011;4734;52.778;6.798;2023-07-24T04:26:37;8.00;;;7.40;;
9388;SDS011;4734;52.778;6.798;2023-07-24T04:29:25;7.90;;;7.20;;
9388;SDS011;4734;52.778;6.798;2023-07-24T04:32:10;8.55;;;7.95;;
9388;SDS011;4734;52.778;6.798;2023-07-24T04:34:56;7.78;;;7.18;;
9388;SDS011;4734;52.778;6.798;2023-07-24T04:37:42;7.65;;;7.05;;
9388;SDS011;4734;52.778;6.798;2023-07-24T04:40:27;8.52;;;7.72;;
9388;SDS011;4734;52.778;6.798;2023-07-24T04:43:13;8.27;;;7.57;;
9388;SDS011;4734;52.778;6.798;2023-07-24T04:46:00;8.00;;;7.38;;
9388;SDS011;4734;52.778;6.798;2023-07-24T04:48:45;8.57;;;7.57;;
9388;SDS011;4734;52.778;6.798;2023-07-24T04:51:31;8.57;;;7.88;;
9388;SDS011;4734;52.778;6.798;2023-07-24T04:54:16;8.63;;;7.93;;
9388;SDS011;4734;52.778;6.798;2023-07-24T04:57:02;8.93;;;8.13;;
9388;SDS011;4734;52.778;6.798;2023-07-24T04:59:48;9.00;;;8.10;;
9388;SDS011;4734;52.778;6.798;2023-07-24T05:02:35;8.48;;;7.68;;
9388;SDS011;4734;52.778;6.798;2023-07-24T05:05:20;7.85;;;7.25;;
9388;SDS011;4734;52.778;6.798;2023-07-24T05:08:06;8.80;;;8.13;;
9388;SDS011;4734;52.778;6.798;2023-07-24T05:10:54;7.53;;;7.00;;
9388;SDS011;4734;52.778;6.798;2023-07-24T05:13:40;8.30;;;7.70;;
9388;SDS011;4734;52.778;6.798;2023-07-24T05:16:26;8.40;;;7.70;;
9388;SDS011;4734;52.778;6.798;2023-07-24T05:19:13;8.82;;;8.13;;
9388;SDS011;4734;52.778;6.798;2023-07-24T05:21:58;10.02;;;9.00;;
9388;SDS011;4734;52.778;6.798;2023-07-24T05:24:44;8.27;;;7.65;;
9388;SDS011;4734;52.778;6.798;2023-07-24T05:27:29;9.13;;;8.23;;
9388;SDS011;4734;52.778;6.798;2023-07-24T05:30:15;10.75;;;9.75;;
9388;SDS011;4734;52.778;6.798;2023-07-24T05:33:01;9.10;;;8.40;;
9388;SDS011;4734;52.778;6.798;2023-07-24T05:35:49;8.52;;;7.82;;
9388;SDS011;4734;52.778;6.798;2023-07-24T05:38:34;9.00;;;8.30;;
9388;SDS011;4734;52.778;6.798;2023-07-24T05:41:20;9.57;;;8.68;;
9388;SDS011;4734;52.778;6.798;2023-07-24T05:44:05;9.07;;;8.27;;
9388;SDS011;4734;52.778;6.798;2023-07-24T05:46:51;8.98;;;8.25;;
9388;SDS011;4734;52.778;6.798;2023-07-24T05:49:37;9.02;;;8.20;;
9388;SDS011;4734;52.778;6.798;2023-07-24T05:52:24;9.45;;;8.55;;
9388;SDS011;4734;52.778;6.798;2023-07-24T05:55:09;8.95;;;8.20;;
9388;SDS011;4734;52.778;6.798;2023-07-24T05:57:55;9.45;;;8.55;;
9388;SDS011;4734;52.778;6.798;2023-07-24T06:00:40;9.25;;;8.52;;
9388;SDS011;4734;52.778;6.798;2023-07-24T06:03:26;9.35;;;8.55;;
9388;SDS011;4734;52.778;6.798;2023-07-24T06:06:12;8.30;;;7.60;;
9388;SDS011;4734;52.778;6.798;2023-07-24T06:08:59;10.07;;;9.18;;
9388;SDS011;4734;52.778;6.798;2023-07-24T06:11:44;8.90;;;8.10;;
9388;SDS011;4734;52.778;6.798;2023-07-24T06:14:30;8.77;;;8.07;;
9388;SDS011;4734;52.778;6.798;2023-07-24T06:17:15;8.93;;;8.13;;
9388;SDS011;4734;52.778;6.798;2023-07-24T06:20:01;8.98;;;8.18;;
9388;SDS011;4734;52.778;6.798;2023-07-24T06:22:46;9.68;;;8.77;;
9388;SDS011;4734;52.778;6.798;2023-07-24T06:25:33;9.90;;;9.00;;
9388;SDS011;4734;52.778;6.798;2023-07-24T06:28:19;8.40;;;7.80;;
9388;SDS011;4734;52.778;6.798;2023-07-24T06:31:04;9.00;;;8.27;;
9388;SDS011;4734;52.778;6.798;2023-07-24T06:33:50;9.52;;;8.77;;
9388;SDS011;4734;52.778;6.798;2023-07-24T06:36:36;9.60;;;8.77;;
9388;SDS011;4734;52.778;6.798;2023-07-24T06:39:21;9.57;;;8.80;;
9388;SDS011;4734;52.778;6.798;2023-07-24T06:42:08;9.15;;;8.35;;
9388;SDS011;4734;52.778;6.798;2023-07-24T06:44:53;8.85;;;8.15;;
9388;SDS011;4734;52.778;6.798;2023-07-24T06:47:39;9.13;;;8.43;;
9388;SDS011;4734;52.778;6.798;2023-07-24T06:50:25;10.30;;;9.40;;
9388;SDS011;4734;52.778;6.798;2023-07-24T06:53:10;9.88;;;8.98;;
9388;SDS011;4734;52.778;6.798;2023-07-24T06:55:56;10.13;;;9.13;;
9388;SDS011;4734;52.778;6.798;2023-07-24T06:58:43;9.85;;;8.85;;
9388;SDS011;4734;52.778;6.798;2023-07-24T07:01:28;10.07;;;9.13;;
9388;SDS011;4734;52.778;6.798;2023-07-24T07:04:14;9.27;;;8.57;;
9388;SDS011;4734;52.778;6.798;2023-07-24T07:07:01;10.43;;;9.43;;
9388;SDS011;4734;52.778;6.798;2023-07-24T07:09:47;11.30;;;8.77;;
9388;SDS011;4734;52.778;6.798;2023-07-24T07:12:33;9.45;;;8.50;;
9388;SDS011;4734;52.778;6.798;2023-07-24T07:15:20;9.77;;;8.88;;
9388;SDS011;4734;52.778;6.798;2023-07-24T07:18:05;10.00;;;9.07;;
9388;SDS011;4734;52.778;6.798;2023-07-24T07:20:51;9.27;;;8.43;;
9388;SDS011;4734;52.778;6.798;2023-07-24T07:23:37;9.95;;;8.30;;
9388;SDS011;4734;52.778;6.798;2023-07-24T07:26:23;9.07;;;8.27;;
9388;SDS011;4734;52.778;6.798;2023-07-24T07:29:09;9.32;;;8.43;;
9388;SDS011;4734;52.778;6.798;2023-07-24T07:31:56;8.35;;;7.55;;
9388;SDS011;4734;52.778;6.798;2023-07-24T07:34:41;8.80;;;7.90;;
9388;SDS011;4734;52.778;6.798;2023-07-24T07:37:27;9.15;;;8.23;;
9388;SDS011;4734;52.778;6.798;2023-07-24T07:40:12;10.10;;;8.45;;
9388;SDS011;4734;52.778;6.798;2023-07-24T07:42:58;8.55;;;7.75;;
9388;SDS011;4734;52.778;6.798;2023-07-24T07:45:43;8.07;;;7.38;;
9388;SDS011;4734;52.778;6.798;2023-07-24T07:48:30;8.50;;;7.70;;
9388;SDS011;4734;52.778;6.798;2023-07-24T07:51:17;10.02;;;7.95;;
9388;SDS011;4734;52.778;6.798;2023-07-24T07:54:02;9.60;;;8.52;;
9388;SDS011;4734;52.778;6.798;2023-07-24T07:56:48;9.00;;;8.10;;
9388;SDS011;4734;52.778;6.798;2023-07-24T07:59:34;10.07;;;8.30;;
9388;SDS011;4734;52.778;6.798;2023-07-24T08:02:19;8.13;;;7.35;;
9388;SDS011;4734;52.778;6.798;2023-07-24T08:05:07;9.48;;;8.48;;
9388;SDS011;4734;52.778;6.798;2023-07-24T08:07:53;10.52;;;8.63;;
9388;SDS011;4734;52.778;6.798;2023-07-24T08:10:39;9.38;;;8.48;;
9388;SDS011;4734;52.778;6.798;2023-07-24T08:13:25;9.95;;;8.27;;
9388;SDS011;4734;52.778;6.798;2023-07-24T08:16:14;9.15;;;8.23;;
9388;SDS011;4734;52.778;6.798;2023-07-24T08:19:02;9.13;;;8.02;;
9388;SDS011;4734;52.778;6.798;2023-07-24T08:21:49;9.45;;;8.00;;
9388;SDS011;4734;52.778;6.798;2023-07-24T08:24:34;9.00;;;8.10;;
9388;SDS011;4734;52.778;6.798;2023-07-24T08:27:20;8.18;;;7.13;;
9388;SDS011;4734;52.778;6.798;2023-07-24T08:30:06;9.80;;;7.38;;
9388;SDS011;4734;52.778;6.798;2023-07-24T08:32:52;8.65;;;7.80;;
9388;SDS011;4734;52.778;6.798;2023-07-24T08:35:37;8.27;;;6.93;;
9388;SDS011;4734;52.778;6.798;2023-07-24T08:38:24;9.15;;;6.88;;
9388;SDS011;4734;52.778;6.798;2023-07-24T08:41:11;11.30;;;7.15;;
9388;SDS011;4734;52.778;6.798;2023-07-24T08:43:57;7.25;;;6.55;;
9388;SDS011;4734;52.778;6.798;2023-07-24T08:46:44;10.05;;;6.60;;
9388;SDS011;4734;52.778;6.798;2023-07-24T08:49:31;7.10;;;6.40;;
9388;SDS011;4734;52.778;6.798;2023-07-24T08:52:18;7.03;;;6.32;;
9388;SDS011;4734;52.778;6.798;2023-07-24T08:55:06;7.45;;;6.53;;
9388;SDS011;4734;52.778;6.798;2023-07-24T08:57:52;9.63;;;7.00;;
9388;SDS011;4734;52.778;6.798;2023-07-24T09:00:38;6.93;;;6.22;;
9388;SDS011;4734;52.778;6.798;2023-07-24T09:03:23;6.50;;;5.82;;
9388;SDS011;4734;52.778;6.798;2023-07-24T09:06:09;8.30;;;6.45;;
9388;SDS011;4734;52.778;6.798;2023-07-24T09:08:55;7.38;;;6.47;;
9388;SDS011;4734;52.778;6.798;2023-07-24T09:11:50;8.15;;;6.40;;
9388;SDS011;4734;52.778;6.798;2023-07-24T09:14:36;8.35;;;7.00;;
9388;SDS011;4734;52.778;6.798;2023-07-24T09:17:22;8.93;;;6.40;;
9388;SDS011;4734;52.778;6.798;2023-07-24T09:20:08;6.93;;;6.30;;
9388;SDS011;4734;52.778;6.798;2023-07-24T09:22:56;8.63;;;7.00;;
9388;SDS011;4734;52.778;6.798;2023-07-24T09:25:42;8.27;;;6.55;;
9388;SDS011;4734;52.778;6.798;2023-07-24T09:28:30;7.22;;;6.50;;
9388;SDS011;4734;52.778;6.798;2023-07-24T09:31:15;7.13;;;6.35;;
9388;SDS011;4734;52.778;6.798;2023-07-24T09:34:01;6.57;;;6.00;;
9388;SDS011;4734;52.778;6.798;2023-07-24T09:36:47;7.45;;;5.93;;
9388;SDS011;4734;52.778;6.798;2023-07-24T09:39:35;6.28;;;5.50;;
9388;SDS011;4734;52.778;6.798;2023-07-24T09:42:28;6.03;;;5.45;;
9388;SDS011;4734;52.778;6.798;2023-07-24T09:45:15;6.97;;;5.78;;
9388;SDS011;4734;52.778;6.798;2023-07-24T09:48:01;6.03;;;5.53;;
9388;SDS011;4734;52.778;6.798;2023-07-24T09:50:47;7.35;;;5.30;;
9388;SDS011;4734;52.778;6.798;2023-07-24T09:53:34;6.40;;;5.75;;
9388;SDS011;4734;52.778;6.798;2023-07-24T09:56:26;6.95;;;5.35;;
9388;SDS011;4734;52.778;6.798;2023-07-24T09:59:13;7.20;;;6.18;;
9388;SDS011;4734;52.778;6.798;2023-07-24T10:02:01;7.78;;;5.45;;
9388;SDS011;4734;52.778;6.798;2023-07-24T10:04:47;8.80;;;5.80;;
9388;SDS011;4734;52.778;6.798;2023-07-24T10:07:34;6.13;;;5.53;;
9388;SDS011;4734;52.778;6.798;2023-07-24T10:10:21;7.15;;;6.07;;
9388;SDS011;4734;52.778;6.798;2023-07-24T10:13:07;5.72;;;5.20;;
9388;SDS011;4734;52.778;6.798;2023-07-24T10:15:56;8.40;;;5.70;;
9388;SDS011;4734;52.778;6.798;2023-07-24T10:18:44;6.20;;;4.50;;
9388;SDS011;4734;52.778;6.798;2023-07-24T10:21:31;6.22;;;5.25;;
9388;SDS011;4734;52.778;6.798;2023-07-24T10:24:17;6.28;;;4.95;;
9388;SDS011;4734;52.778;6.798;2023-07-24T10:27:07;5.95;;;5.35;;
9388;SDS011;4734;52.778;6.798;2023-07-24T10:29:58;5.97;;;5.38;;
9388;SDS011;4734;52.778;6.798;2023-07-24T10:32:47;6.18;;;5.57;;
9388;SDS011;4734;52.778;6.798;2023-07-24T10:35:42;6.60;;;5.30;;
9388;SDS011;4734;52.778;6.798;2023-07-24T10:38:32;6.50;;;5.80;;
9388;SDS011;4734;52.778;6.798;2023-07-24T10:41:21;5.93;;;5.22;;
9388;SDS011;4734;52.778;6.798;2023-07-24T10:44:11;6.22;;;5.63;;
9388;SDS011;4734;52.778;6.798;2023-07-24T10:46:56;5.32;;;4.80;;
9388;SDS011;4734;52.778;6.798;2023-07-24T10:49:42;6.45;;;5.28;;
9388;SDS011;4734;52.778;6.798;2023-07-24T10:52:36;7.40;;;5.53;;
9388;SDS011;4734;52.778;6.798;2023-07-24T10:55:22;8.90;;;4.80;;
9388;SDS011;4734;52.778;6.798;2023-07-24T10:58:08;7.00;;;5.07;;
9388;SDS011;4734;52.778;6.798;2023-07-24T11:00:55;5.30;;;4.90;;
9388;SDS011;4734;52.778;6.798;2023-07-24T11:03:43;5.22;;;4.80;;
9388;SDS011;4734;52.778;6.798;2023-07-24T11:06:29;6.20;;;4.50;;
9388;SDS011;4734;52.778;6.798;2023-07-24T11:09:16;5.30;;;4.43;;
9388;SDS011;4734;52.778;6.798;2023-07-24T11:12:08;4.80;;;4.40;;
9388;SDS011;4734;52.778;6.798;2023-07-24T11:14:55;5.45;;;4.93;;
9388;SDS011;4734;52.778;6.798;2023-07-24T11:17:51;5.28;;;4.57;;
9388;SDS011;4734;52.778;6.798;2023-07-24T11:20:38;6.00;;;3.78;;
9388;SDS011;4734;52.778;6.798;2023-07-24T11:23:32;6.57;;;4.50;;
9388;SDS011;4734;52.778;6.798;2023-07-24T11:26:20;4.90;;;4.40;;
9388;SDS011;4734;52.778;6.798;2023-07-24T11:29:12;4.88;;;4.38;;
9388;SDS011;4734;52.778;6.798;2023-07-24T11:31:58;5.60;;;4.20;;
9388;SDS011;4734;52.778;6.798;2023-07-24T11:34:43;6.07;;;4.53;;
9388;SDS011;4734;52.778;6.798;2023-07-24T11:37:29;4.65;;;4.25;;
9388;SDS011;4734;52.778;6.798;2023-07-24T11:40:15;4.95;;;3.55;;
9388;SDS011;4734;52.778;6.798;2023-07-24T11:43:04;5.13;;;3.88;;
9388;SDS011;4734;52.778;6.798;2023-07-24T11:45:59;5.78;;;3.95;;
9388;SDS011;4734;52.778;6.798;2023-07-24T11:48:44;4.88;;;4.35;;
9388;SDS011;4734;52.778;6.798;2023-07-24T11:51:30;5.03;;;4.53;;
9388;SDS011;4734;52.778;6.798;2023-07-24T11:54:17;4.72;;;4.25;;
9388;SDS011;4734;52.778;6.798;2023-07-24T11:57:02;6.22;;;4.43;;
9388;SDS011;4734;52.778;6.798;2023-07-24T12:00:00;4.40;;;4.05;;
9388;SDS011;4734;52.778;6.798;2023-07-24T12:02:46;4.38;;;3.60;;
9388;SDS011;4734;52.778;6.798;2023-07-24T12:05:37;5.43;;;4.53;;
9388;SDS011;4734;52.778;6.798;2023-07-24T12:08:29;6.68;;;4.50;;
9388;SDS011;4734;52.778;6.798;2023-07-24T12:11:16;5.57;;;4.03;;
9388;SDS011;4734;52.778;6.798;2023-07-24T12:14:02;5.07;;;4.60;;
9388;SDS011;4734;52.778;6.798;2023-07-24T12:16:49;5.13;;;4.10;;
9388;SDS011;4734;52.778;6.798;2023-07-24T12:19:35;6.20;;;4.35;;
9388;SDS011;4734;52.778;6.798;2023-07-24T12:22:20;5.07;;;4.20;;
9388;SDS011;4734;52.778;6.798;2023-07-24T12:25:06;4.97;;;4.47;;
9388;SDS011;4734;52.778;6.798;2023-07-24T12:27:52;4.93;;;4.40;;
9388;SDS011;4734;52.778;6.798;2023-07-24T12:30:38;5.00;;;4.45;;
9388;SDS011;4734;52.778;6.798;2023-07-24T12:33:25;7.70;;;4.63;;
9388;SDS011;4734;52.778;6.798;2023-07-24T12:36:10;4.72;;;4.10;;
9388;SDS011;4734;52.778;6.798;2023-07-24T12:38:56;6.55;;;4.30;;
9388;SDS011;4734;52.778;6.798;2023-07-24T12:41:41;5.53;;;4.00;;
9388;SDS011;4734;52.778;6.798;2023-07-24T12:44:27;5.40;;;4.40;;
9388;SDS011;4734;52.778;6.798;2023-07-24T12:47:13;6.22;;;4.75;;
9388;SDS011;4734;52.778;6.798;2023-07-24T12:50:00;4.55;;;4.15;;
9388;SDS011;4734;52.778;6.798;2023-07-24T12:52:46;4.95;;;4.50;;
9388;SDS011;4734;52.778;6.798;2023-07-24T12:55:32;5.53;;;4.57;;
9388;SDS011;4734;52.778;6.798;2023-07-24T12:58:17;5.03;;;4.63;;
9388;SDS011;4734;52.778;6.798;2023-07-24T13:01:03;5.28;;;4.43;;
9388;SDS011;4734;52.778;6.798;2023-07-24T13:03:50;6.43;;;4.88;;
9388;SDS011;4734;52.778;6.798;2023-07-24T13:06:37;4.68;;;3.90;;
9388;SDS011;4734;52.778;6.798;2023-07-24T13:09:22;6.90;;;4.03;;
9388;SDS011;4734;52.778;6.798;2023-07-24T13:12:08;7.05;;;4.55;;
9388;SDS011;4734;52.778;6.798;2023-07-24T13:14:54;6.85;;;4.35;;
9388;SDS011;4734;52.778;6.798;2023-07-24T13:17:39;5.72;;;4.30;;
9388;SDS011;4734;52.778;6.798;2023-07-24T13:20:25;4.97;;;4.20;;
9388;SDS011;4734;52.778;6.798;2023-07-24T13:23:12;5.07;;;4.57;;
9388;SDS011;4734;52.778;6.798;2023-07-24T13:25:57;4.82;;;4.43;;
9388;SDS011;4734;52.778;6.798;2023-07-24T13:28:43;6.95;;;4.50;;
9388;SDS011;4734;52.778;6.798;2023-07-24T13:31:29;4.55;;;4.15;;
9388;SDS011;4734;52.778;6.798;2023-07-24T13:34:16;4.75;;;4.30;;
9388;SDS011;4734;52.778;6.798;2023-07-24T13:37:03;5.65;;;4.43;;
9388;SDS011;4734;52.778;6.798;2023-07-24T13:39:50;6.13;;;4.88;;
9388;SDS011;4734;52.778;6.798;2023-07-24T13:42:35;5.15;;;4.75;;
9388;SDS011;4734;52.778;6.798;2023-07-24T13:45:21;5.25;;;4.72;;
9388;SDS011;4734;52.778;6.798;2023-07-24T13:48:07;5.63;;;3.65;;
9388;SDS011;4734;52.778;6.798;2023-07-24T13:50:52;9.98;;;4.40;;
9388;SDS011;4734;52.778;6.798;2023-07-24T13:53:38;6.05;;;3.83;;
9388;SDS011;4734;52.778;6.798;2023-07-24T13:56:25;5.57;;;4.07;;
9388;SDS011;4734;52.778;6.798;2023-07-24T13:59:13;6.53;;;4.20;;
9388;SDS011;4734;52.778;6.798;2023-07-24T14:01:58;5.35;;;4.20;;
9388;SDS011;4734;52.778;6.798;2023-07-24T14:04:44;7.78;;;4.72;;
9388;SDS011;4734;52.778;6.798;2023-07-24T14:07:30;4.45;;;4.05;;
9388;SDS011;4734;52.778;6.798;2023-07-24T14:10:15;6.47;;;4.47;;
9388;SDS011;4734;52.778;6.798;2023-07-24T14:13:02;4.78;;;3.78;;
9388;SDS011;4734;52.778;6.798;2023-07-24T14:15:48;5.25;;;4.75;;
9388;SDS011;4734;52.778;6.798;2023-07-24T14:18:33;5.15;;;4.22;;
9388;SDS011;4734;52.778;6.798;2023-07-24T14:21:19;5.85;;;4.80;;
9388;SDS011;4734;52.778;6.798;2023-07-24T14:24:04;5.53;;;4.72;;
9388;SDS011;4734;52.778;6.798;2023-07-24T14:26:50;6.70;;;5.40;;
9388;SDS011;4734;52.778;6.798;2023-07-24T14:29:37;7.57;;;5.32;;
9388;SDS011;4734;52.778;6.798;2023-07-24T14:32:22;5.32;;;4.82;;
9388;SDS011;4734;52.778;6.798;2023-07-24T14:35:08;4.85;;;4.30;;
9388;SDS011;4734;52.778;6.798;2023-07-24T14:37:54;5.63;;;5.00;;
9388;SDS011;4734;52.778;6.798;2023-07-24T14:40:39;6.22;;;5.00;;
9388;SDS011;4734;52.778;6.798;2023-07-24T14:43:25;5.28;;;4.78;;
9388;SDS011;4734;52.778;6.798;2023-07-24T14:46:12;5.63;;;4.70;;
9388;SDS011;4734;52.778;6.798;2023-07-24T14:48:57;5.50;;;4.85;;
9388;SDS011;4734;52.778;6.798;2023-07-24T14:51:43;5.10;;;4.60;;
9388;SDS011;4734;52.778;6.798;2023-07-24T14:54:29;5.63;;;4.68;;
9388;SDS011;4734;52.778;6.798;2023-07-24T14:57:14;5.97;;;5.20;;
9388;SDS011;4734;52.778;6.798;2023-07-24T15:00:00;6.28;;;5.07;;
9388;SDS011;4734;52.778;6.798;2023-07-24T15:02:47;5.43;;;4.93;;
9388;SDS011;4734;52.778;6.798;2023-07-24T15:05:33;4.45;;;4.00;;
9388;SDS011;4734;52.778;6.798;2023-07-24T15:08:18;4.30;;;4.00;;
9388;SDS011;4734;52.778;6.798;2023-07-24T15:11:04;4.68;;;3.90;;
9388;SDS011;4734;52.778;6.798;2023-07-24T15:13:50;3.85;;;3.08;;
9388;SDS011;4734;52.778;6.798;2023-07-24T15:16:36;2.67;;;2.47;;
9388;SDS011;4734;52.778;6.798;2023-07-24T15:19:23;3.30;;;2.75;;
9388;SDS011;4734;52.778;6.798;2023-07-24T15:22:08;2.55;;;2.20;;
9388;SDS011;4734;52.778;6.798;2023-07-24T15:24:54;4.38;;;2.20;;
9388;SDS011;4734;52.778;6.798;2023-07-24T15:27:39;6.35;;;2.97;;
9388;SDS011;4734;52.778;6.798;2023-07-24T15:30:25;3.47;;;2.28;;
9388;SDS011;4734;52.778;6.798;2023-07-24T15:33:11;4.28;;;2.13;;
9388;SDS011;4734;52.778;6.798;2023-07-24T15:35:57;3.75;;;1.92;;
9388;SDS011;4734;52.778;6.798;2023-07-24T15:38:43;5.57;;;2.05;;
9388;SDS011;4734;52.778;6.798;2023-07-24T15:41:29;6.57;;;2.30;;
9388;SDS011;4734;52.778;6.798;2023-07-24T15:44:14;2.85;;;2.20;;
9388;SDS011;4734;52.778;6.798;2023-07-24T15:47:00;4.57;;;1.98;;
9388;SDS011;4734;52.778;6.798;2023-07-24T15:49:46;2.33;;;1.75;;
9388;SDS011;4734;52.778;6.798;2023-07-24T15:52:32;2.83;;;1.85;;
9388;SDS011;4734;52.778;6.798;2023-07-24T15:55:18;2.75;;;1.80;;
9388;SDS011;4734;52.778;6.798;2023-07-24T15:58:03;4.85;;;2.13;;
9388;SDS011;4734;52.778;6.798;2023-07-24T16:00:49;5.68;;;1.73;;
9388;SDS011;4734;52.778;6.798;2023-07-24T16:03:35;4.82;;;2.35;;
9388;SDS011;4734;52.778;6.798;2023-07-24T16:06:20;5.30;;;1.88;;
9388;SDS011;4734;52.778;6.798;2023-07-24T16:09:07;3.72;;;1.70;;
9388;SDS011;4734;52.778;6.798;2023-07-24T16:11:52;3.97;;;1.70;;
9388;SDS011;4734;52.778;6.798;2023-07-24T16:14:38;2.65;;;1.67;;
9388;SDS011;4734;52.778;6.798;2023-07-24T16:17:24;2.90;;;1.50;;
9388;SDS011;4734;52.778;6.798;2023-07-24T16:20:10;2.42;;;1.40;;
9388;SDS011;4734;52.778;6.798;2023-07-24T16:22:56;5.22;;;1.67;;
9388;SDS011;4734;52.778;6.798;2023-07-24T16:25:43;2.63;;;1.40;;
9388;SDS011;4734;52.778;6.798;2023-07-24T16:28:28;2.88;;;1.50;;
9388;SDS011;4734;52.778;6.798;2023-07-24T16:31:14;2.50;;;1.30;;
9388;SDS011;4734;52.778;6.798;2023-07-24T16:33:59;2.05;;;1.58;;
9388;SDS011;4734;52.778;6.798;2023-07-24T16:36:45;2.38;;;1.50;;
9388;SDS011;4734;52.778;6.798;2023-07-24T16:39:31;7.85;;;1.45;;
9388;SDS011;4734;52.778;6.798;2023-07-24T16:42:18;3.15;;;1.48;;
9388;SDS011;4734;52.778;6.798;2023-07-24T16:45:03;5.15;;;1.60;;
9388;SDS011;4734;52.778;6.798;2023-07-24T16:47:49;2.58;;;1.50;;
9388;SDS011;4734;52.778;6.798;2023-07-24T16:50:35;1.63;;;1.40;;
9388;SDS011;4734;52.778;6.798;2023-07-24T16:53:20;1.58;;;1.27;;
9388;SDS011;4734;52.778;6.798;2023-07-24T16:56:06;2.03;;;1.35;;
9388;SDS011;4734;52.778;6.798;2023-07-24T16:58:53;4.28;;;1.45;;
9388;SDS011;4734;52.778;6.798;2023-07-24T17:01:39;4.20;;;1.40;;
9388;SDS011;4734;52.778;6.798;2023-07-24T17:04:24;2.17;;;1.30;;
9388;SDS011;4734;52.778;6.798;2023-07-24T17:07:10;2.95;;;1.48;;
9388;SDS011;4734;52.778;6.798;2023-07-24T17:09:56;3.30;;;1.48;;
9388;SDS011;4734;52.778;6.798;2023-07-24T17:12:41;2.17;;;1.42;;